createdAt,value
2022-08-22T00:01:31.632Z,100167.47
2022-08-22T00:02:48.676Z,100145.94
2022-08-22T00:02:57.375Z,100139.63
2022-08-22T00:03:01.923Z,100151.59
2022-08-22T00:03:06.413Z,100139.13
2022-08-22T00:03:59.075Z,100165.28
2022-08-22T00:06:26.468Z,100168.25
2022-08-22T00:08:53.852Z,100170.28
2022-08-22T00:11:21.191Z,100167.69
2022-08-22T00:13:48.580Z,100171.59
2022-08-22T00:16:21.304Z,100176.25
2022-08-22T00:21:42.849Z,100178.25
2022-08-22T00:24:10.223Z,100172.53
2022-08-22T00:26:38.369Z,100178.88
2022-08-22T00:29:06.715Z,100174.91
2022-08-22T00:31:34.127Z,100174.75
2022-08-22T00:36:55.519Z,100178.69
2022-08-22T00:39:21.985Z,100174.09
2022-08-22T00:41:48.458Z,100174.31
2022-08-22T00:44:14.933Z,100178.78
2022-08-22T00:46:42.329Z,100175.09
2022-08-22T00:51:54.880Z,100181.00
2022-08-22T00:54:21.355Z,100181.13
2022-08-22T00:56:47.831Z,100176.78
2022-08-22T00:59:23.342Z,100183.47
2022-08-22T01:01:51.506Z,100178.09
2022-08-22T01:07:02.747Z,100189.06
2022-08-22T01:09:30.157Z,100194.47
2022-08-22T01:11:57.562Z,100197.22
2022-08-22T01:14:34.416Z,100186.25
2022-08-22T01:17:02.708Z,100193.25
2022-08-22T01:22:24.968Z,100183.66
2022-08-22T01:24:51.522Z,100190.56
2022-08-22T01:27:19.327Z,100184.38
2022-08-22T01:29:46.632Z,100189.50
2022-08-22T01:32:14.232Z,100190.47
2022-08-22T01:37:24.530Z,100192.22
2022-08-22T01:39:51.083Z,100192.47
2022-08-22T01:42:18.512Z,100192.13
2022-08-22T01:44:45.888Z,100189.97
2022-08-22T01:47:12.406Z,100195.03
2022-08-22T01:52:23.036Z,100192.66
2022-08-22T01:54:49.502Z,100191.94
2022-08-22T01:57:15.985Z,100187.16
2022-08-22T01:59:42.897Z,100186.34
2022-08-22T02:02:09.485Z,100188.03
2022-08-22T02:07:31.864Z,100186.44
2022-08-22T02:09:59.683Z,100187.78
2022-08-22T02:12:27.075Z,100187.84
2022-08-22T02:14:53.556Z,100191.03
2022-08-22T02:17:20.945Z,100194.25
2022-08-22T02:22:44.784Z,100198.06
2022-08-22T02:25:12.334Z,100187.78
2022-08-22T02:27:38.786Z,100187.53
2022-08-22T02:30:05.247Z,100188.88
2022-08-22T02:32:31.721Z,100188.09
2022-08-22T02:37:43.244Z,100186.41
2022-08-22T02:40:10.671Z,100192.53
2022-08-22T02:42:37.313Z,100186.75
2022-08-22T02:45:07.352Z,100190.47
2022-08-22T02:47:33.812Z,100189.88
2022-08-22T02:52:56.098Z,100195.63
2022-08-22T02:55:22.557Z,100189.00
2022-08-22T02:57:49.944Z,100197.19
2022-08-22T03:00:30.892Z,100202.72
2022-08-22T03:02:58.652Z,100203.38
2022-08-22T03:08:21.130Z,100212.00
2022-08-22T03:10:48.349Z,100220.06
2022-08-22T03:13:15.752Z,100218.34
2022-08-22T03:15:46.101Z,100213.03
2022-08-22T03:18:16.698Z,100214.41
2022-08-22T03:20:43.133Z,100209.72
2022-08-22T03:23:10.493Z,100207.09
2022-08-22T03:25:37.880Z,100209.13
2022-08-22T03:28:05.268Z,100212.84
2022-08-22T03:30:32.660Z,100218.38
2022-08-22T03:33:00.039Z,100215.50
2022-08-22T03:38:12.512Z,100232.16
2022-08-22T03:40:39.880Z,100226.69
2022-08-22T03:43:07.265Z,100221.78
2022-08-22T03:45:33.726Z,100221.41
2022-08-22T03:48:01.131Z,100215.31
2022-08-22T03:53:22.661Z,100213.31
2022-08-22T03:55:49.102Z,100218.59
2022-08-22T03:58:27.589Z,100220.25
2022-08-22T04:00:55.960Z,100223.81
2022-08-22T04:03:24.151Z,100215.88
2022-08-22T04:08:35.495Z,100233.63
2022-08-22T04:11:08.415Z,100235.59
2022-08-22T04:13:34.888Z,100237.19
2022-08-22T04:16:01.321Z,100240.78
2022-08-22T04:18:27.778Z,100253.75
2022-08-22T04:23:42.498Z,100252.88
2022-08-22T04:26:12.133Z,100260.50
2022-08-22T04:28:40.124Z,100251.53
2022-08-22T04:31:07.559Z,100243.47
2022-08-22T04:33:34.909Z,100241.59
2022-08-22T04:38:55.956Z,100256.22
2022-08-22T04:41:23.351Z,100250.56
2022-08-22T04:43:50.702Z,100246.63
2022-08-22T04:46:18.101Z,100244.81
2022-08-22T04:48:44.570Z,100253.03
2022-08-22T04:54:05.983Z,100265.41
2022-08-22T04:56:32.455Z,100268.00
2022-08-22T04:58:58.912Z,100262.16
2022-08-22T05:01:26.396Z,100265.38
2022-08-22T05:03:53.836Z,100261.47
2022-08-22T05:09:04.290Z,100263.69
2022-08-22T05:11:31.283Z,100261.41
2022-08-22T05:13:58.672Z,100264.81
2022-08-22T05:16:25.126Z,100259.38
2022-08-22T05:18:51.588Z,100260.66
2022-08-22T05:24:02.082Z,100262.47
2022-08-22T05:26:28.788Z,100265.91
2022-08-22T05:31:46.922Z,100275.09
2022-08-22T05:34:13.658Z,100270.19
2022-08-22T05:36:41.035Z,100280.53
2022-08-22T05:39:07.526Z,100275.94
2022-08-22T05:41:34.938Z,100275.78
2022-08-22T05:44:01.430Z,100275.66
2022-08-22T05:46:28.869Z,100279.16
2022-08-22T05:48:55.380Z,100277.94
2022-08-22T05:51:21.836Z,100277.34
2022-08-22T05:53:49.193Z,100280.81
2022-08-22T05:56:15.667Z,100288.91
2022-08-22T05:58:42.124Z,100281.31
2022-08-22T06:01:08.603Z,100283.03
2022-08-22T06:03:35.978Z,100276.16
2022-08-22T06:06:03.377Z,100274.47
2022-08-22T06:08:30.347Z,100274.44
2022-08-22T06:10:56.820Z,100273.56
2022-08-22T06:13:24.658Z,100277.22
2022-08-22T06:15:52.911Z,100274.28
2022-08-22T06:18:19.367Z,100279.13
2022-08-22T06:20:45.896Z,100272.16
2022-08-22T06:23:13.272Z,100272.25
2022-08-22T06:25:39.763Z,100272.84
2022-08-22T06:28:06.230Z,100274.41
2022-08-22T06:30:33.680Z,100271.88
2022-08-22T06:33:01.195Z,100270.66
2022-08-22T06:35:28.605Z,100278.06
2022-08-22T06:37:56.006Z,100277.81
2022-08-22T06:40:23.461Z,100275.66
2022-08-22T06:42:50.918Z,100282.81
2022-08-22T06:45:17.415Z,100277.13
2022-08-22T06:47:43.970Z,100282.03
2022-08-22T06:50:16.768Z,100287.19
2022-08-22T06:52:43.239Z,100289.91
2022-08-22T06:55:10.607Z,100286.25
2022-08-22T06:57:37.071Z,100291.31
2022-08-22T07:00:03.553Z,100287.47
2022-08-22T07:02:30.036Z,100294.63
2022-08-22T07:04:56.555Z,100295.19
2022-08-22T07:07:23.960Z,100290.81
2022-08-22T07:09:50.408Z,100284.06
2022-08-22T07:12:16.885Z,100287.03
2022-08-22T07:14:43.337Z,100284.25
2022-08-22T07:17:10.701Z,100288.00
2022-08-22T07:19:37.171Z,100286.00
2022-08-22T07:22:04.537Z,100285.22
2022-08-22T07:24:31.557Z,100292.19
2022-08-22T07:26:58.024Z,100290.53
2022-08-22T07:29:24.701Z,100284.88
2022-08-22T07:31:51.190Z,100290.28
2022-08-22T07:34:19.048Z,100288.16
2022-08-22T07:36:46.367Z,100288.69
2022-08-22T07:39:12.796Z,100299.16
2022-08-22T07:41:39.748Z,100297.16
2022-08-22T07:44:07.035Z,100294.59
2022-08-22T07:46:34.267Z,100304.91
2022-08-22T07:49:10.213Z,100312.09
2022-08-22T07:51:38.632Z,100313.66
2022-08-22T07:54:05.134Z,100314.38
2022-08-22T07:56:32.369Z,100301.13
2022-08-22T07:59:04.794Z,100319.06
2022-08-22T08:01:33.325Z,100315.06
2022-08-22T08:03:59.858Z,100310.22
2022-08-22T08:06:26.267Z,100315.06
2022-08-22T08:08:52.645Z,100309.00
2022-08-22T08:11:19.107Z,100304.50
2022-08-22T08:13:46.359Z,100309.69
2022-08-22T08:16:13.626Z,100310.47
2022-08-22T08:18:40.879Z,100308.81
2022-08-22T08:21:13.094Z,100302.41
2022-08-22T08:23:40.354Z,100309.13
2022-08-22T08:26:06.932Z,100308.25
2022-08-22T08:28:33.355Z,100305.00
2022-08-22T08:31:00.154Z,100307.81
2022-08-22T08:33:26.941Z,100314.19
2022-08-22T08:36:03.371Z,100306.59
2022-08-22T08:38:30.283Z,100305.00
2022-08-22T08:40:56.765Z,100306.34
2022-08-22T08:43:23.206Z,100302.53
2022-08-22T08:45:50.506Z,100306.19
2022-08-22T08:48:16.960Z,100300.59
2022-08-22T08:50:43.397Z,100303.41
2022-08-22T08:53:09.917Z,100300.19
2022-08-22T08:55:38.901Z,100300.50
2022-08-22T08:58:07.006Z,100297.16
2022-08-22T09:00:35.530Z,100307.28
2022-08-22T09:03:07.062Z,100291.47
2022-08-22T09:05:34.660Z,100300.88
2022-08-22T09:08:01.251Z,100301.25
2022-08-22T09:10:29.547Z,100300.69
2022-08-22T09:13:00.386Z,100298.84
2022-08-22T09:15:39.234Z,100302.78
2022-08-22T09:18:06.470Z,100299.59
2022-08-22T09:20:34.838Z,100299.31
2022-08-22T09:23:02.207Z,100297.34
2022-08-22T09:25:39.208Z,100295.97
2022-08-22T09:28:08.467Z,100303.22
2022-08-22T09:30:34.862Z,100296.09
2022-08-22T09:33:02.453Z,100297.28
2022-08-22T09:35:28.956Z,100294.34
2022-08-22T09:37:56.033Z,100298.22
2022-08-22T09:42:51.719Z,100288.53
2022-08-22T09:45:18.316Z,100289.53
2022-08-22T09:47:44.743Z,100291.59
2022-08-22T09:50:11.219Z,100290.09
2022-08-22T09:52:37.654Z,100283.47
2022-08-22T09:55:04.069Z,100289.28
2022-08-22T09:57:35.860Z,100287.28
2022-08-22T10:00:03.192Z,100281.69
2022-08-22T10:02:30.780Z,100286.97
2022-08-22T10:04:58.248Z,100281.69
2022-08-22T10:07:25.565Z,100286.63
2022-08-22T10:09:54.891Z,100287.72
2022-08-22T10:12:24.768Z,100289.06
2022-08-22T10:14:51.432Z,100288.06
2022-08-22T10:17:21.569Z,100282.00
2022-08-22T10:19:48.566Z,100285.94
2022-08-22T10:22:16.119Z,100291.66
2022-08-22T10:24:44.053Z,100292.34
2022-08-22T10:27:11.554Z,100287.28
2022-08-22T10:29:37.995Z,100289.66
2022-08-22T10:32:07.698Z,100294.47
2022-08-22T10:34:41.762Z,100289.75
2022-08-22T10:37:10.287Z,100292.91
2022-08-22T10:39:36.847Z,100298.84
2022-08-22T10:42:03.293Z,100292.56
2022-08-22T10:44:30.836Z,100294.13
2022-08-22T10:46:57.859Z,100290.88
2022-08-22T10:49:28.847Z,100297.72
2022-08-22T10:51:55.808Z,100302.09
2022-08-22T10:54:24.853Z,100296.50
2022-08-22T10:56:51.298Z,100288.97
2022-08-22T10:59:20.032Z,100293.81
2022-08-22T11:01:50.261Z,100289.13
2022-08-22T11:04:18.358Z,100293.25
2022-08-22T11:06:45.092Z,100295.59
2022-08-22T11:09:12.306Z,100289.56
2022-08-22T11:11:39.623Z,100293.78
2022-08-22T11:14:06.905Z,100293.81
2022-08-22T11:16:36.530Z,100288.66
2022-08-22T11:19:14.934Z,100292.63
2022-08-22T11:21:42.969Z,100300.66
2022-08-22T11:24:17.198Z,100294.22
2022-08-22T11:26:56.713Z,100300.09
2022-08-22T11:29:23.819Z,100291.72
2022-08-22T11:31:51.670Z,100303.22
2022-08-22T11:34:20.477Z,100301.84
2022-08-22T11:36:47.120Z,100309.03
2022-08-22T11:39:18.731Z,100297.16
2022-08-22T11:41:52.416Z,100307.53
2022-08-22T11:44:19.368Z,100302.13
2022-08-22T11:46:46.744Z,100292.81
2022-08-22T11:49:14.028Z,100298.41
2022-08-22T11:51:41.355Z,100300.66
2022-08-22T11:54:09.026Z,100309.38
2022-08-22T11:56:35.489Z,100295.53
2022-08-22T11:59:07.484Z,100295.28
2022-08-22T12:01:34.779Z,100297.88
2022-08-22T12:04:01.220Z,100298.78
2022-08-22T12:06:30.833Z,100306.09
2022-08-22T12:09:04.714Z,100308.63
2022-08-22T12:11:31.142Z,100293.81
2022-08-22T12:14:05.154Z,100292.25
2022-08-22T12:16:32.965Z,100299.41
2022-08-22T12:19:00.259Z,100288.59
2022-08-22T12:21:30.021Z,100296.97
2022-08-22T12:23:56.896Z,100297.31
2022-08-22T12:26:23.314Z,100292.94
2022-08-22T12:28:50.529Z,100294.75
2022-08-22T12:31:17.978Z,100299.75
2022-08-22T12:33:45.678Z,100296.41
2022-08-22T12:36:17.898Z,100303.38
2022-08-22T12:38:44.943Z,100303.47
2022-08-22T12:41:11.383Z,100296.19
2022-08-22T12:43:42.402Z,100296.19
2022-08-22T12:46:13.116Z,100293.50
2022-08-22T12:48:39.967Z,100295.53
2022-08-22T12:51:17.479Z,100283.81
2022-08-22T12:53:45.586Z,100292.59
2022-08-22T12:56:12.017Z,100290.69
2022-08-22T12:58:39.679Z,100292.72
2022-08-22T13:01:06.445Z,100291.66
2022-08-22T13:03:33.996Z,100286.06
2022-08-22T13:06:01.309Z,100291.13
2022-08-22T13:08:29.003Z,100294.59
2022-08-22T13:10:56.592Z,100293.50
2022-08-22T13:13:31.485Z,100297.19
2022-08-22T13:16:03.850Z,100296.63
2022-08-22T13:18:32.299Z,100287.38
2022-08-22T13:21:02.321Z,100290.09
2022-08-22T13:23:29.602Z,100286.50
2022-08-22T13:25:57.436Z,100290.88
2022-08-22T13:28:24.701Z,100287.28
2022-08-22T13:30:54.594Z,100286.84
2022-08-22T13:33:21.031Z,100286.94
2022-08-22T13:35:51.841Z,100287.66
2022-08-22T13:38:25.588Z,100287.22
2022-08-22T13:40:53.105Z,100288.19
2022-08-22T13:43:21.113Z,100283.25
2022-08-22T13:45:48.481Z,100286.06
2022-08-22T13:48:16.376Z,100283.38
2022-08-22T13:50:53.496Z,100283.38
2022-08-22T13:53:21.357Z,100274.63
2022-08-22T13:55:49.057Z,100278.31
2022-08-22T13:58:15.755Z,100266.19
2022-08-22T14:00:48.736Z,100280.44
2022-08-22T14:03:25.096Z,100269.31
2022-08-22T14:05:53.117Z,100277.97
2022-08-22T14:08:20.650Z,100274.41
2022-08-22T14:10:48.020Z,100261.59
2022-08-22T14:13:21.389Z,100259.66
2022-08-22T14:15:48.791Z,100254.94
2022-08-22T14:18:18.732Z,100258.91
2022-08-22T14:20:45.286Z,100261.38
2022-08-22T14:23:14.045Z,100258.56
2022-08-22T14:25:42.358Z,100258.56
2022-08-22T14:28:09.917Z,100255.31
2022-08-22T14:30:37.289Z,100258.56
2022-08-22T14:33:04.698Z,100257.75
2022-08-22T14:35:35.286Z,100256.97
2022-08-22T14:38:05.100Z,100256.53
2022-08-22T14:40:44.626Z,100262.34
2022-08-22T14:43:11.090Z,100262.03
2022-08-22T14:45:37.539Z,100261.03
2022-08-22T14:48:30.695Z,100261.81
2022-08-22T14:50:53.116Z,100261.81
2022-08-22T14:53:22.241Z,100262.91
2022-08-22T14:55:52.674Z,100254.63
2022-08-22T14:58:27.619Z,100261.81
2022-08-22T15:00:55.272Z,100260.56
2022-08-22T15:03:21.745Z,100262.59
2022-08-22T15:05:49.094Z,100256.97
2022-08-22T15:08:17.512Z,100257.31
2022-08-22T15:10:44.904Z,100262.69
2022-08-22T15:13:12.504Z,100249.22
2022-08-22T15:15:49.668Z,100250.69
2022-08-22T15:18:22.477Z,100249.59
2022-08-22T15:20:52.048Z,100253.94
2022-08-22T15:23:19.773Z,100252.03
2022-08-22T15:25:47.585Z,100252.38
2022-08-22T15:28:20.069Z,100252.50
2022-08-22T15:30:48.026Z,100255.97
2022-08-22T15:33:20.667Z,100255.84
2022-08-22T15:35:48.058Z,100260.00
2022-08-22T15:38:14.619Z,100245.75
2022-08-22T15:40:43.544Z,100243.94
2022-08-22T15:43:13.136Z,100248.13
2022-08-22T15:45:41.441Z,100240.72
2022-08-22T15:48:07.950Z,100240.94
2022-08-22T15:50:34.546Z,100238.94
2022-08-22T15:53:04.866Z,100236.88
2022-08-22T15:55:34.524Z,100234.78
2022-08-22T15:58:02.444Z,100241.94
2022-08-22T16:00:30.266Z,100237.34
2022-08-22T16:02:57.653Z,100236.53
2022-08-22T16:05:24.113Z,100234.91
2022-08-22T16:07:51.512Z,100243.25
2022-08-22T16:10:18.160Z,100234.44
2022-08-22T16:12:45.547Z,100230.72
2022-08-22T16:15:12.917Z,100233.94
2022-08-22T16:17:40.303Z,100235.78
2022-08-22T16:20:07.698Z,100239.03
2022-08-22T16:22:37.585Z,100237.75
2022-08-22T16:25:04.977Z,100243.25
2022-08-22T16:27:31.645Z,100242.72
2022-08-22T16:29:59.072Z,100251.22
2022-08-22T16:32:25.586Z,100249.03
2022-08-22T16:34:53.031Z,100254.06
2022-08-22T16:37:19.497Z,100259.06
2022-08-22T16:39:46.903Z,100261.09
2022-08-22T16:42:13.421Z,100261.63
2022-08-22T16:44:40.799Z,100262.41
2022-08-22T16:47:07.271Z,100264.91
2022-08-22T16:49:33.784Z,100256.75
2022-08-22T16:52:01.104Z,100261.75
2022-08-22T16:54:28.487Z,100253.81
2022-08-22T16:56:54.980Z,100257.94
2022-08-22T16:59:23.765Z,100252.38
2022-08-22T17:01:51.537Z,100257.38
2022-08-22T17:04:18.296Z,100258.22
2022-08-22T17:06:44.760Z,100253.38
2022-08-22T17:09:11.228Z,100259.34
2022-08-22T17:11:38.715Z,100264.97
2022-08-22T17:14:05.187Z,100253.38
2022-08-22T17:16:32.580Z,100261.78
2022-08-22T17:19:00.028Z,100272.50
2022-08-22T17:21:27.410Z,100270.94
2022-08-22T17:23:54.795Z,100272.97
2022-08-22T17:26:22.164Z,100274.09
2022-08-22T17:28:49.554Z,100282.88
2022-08-22T17:31:16.022Z,100286.81
2022-08-22T17:33:43.427Z,100288.72
2022-08-22T17:36:26.788Z,100298.03
2022-08-22T17:38:53.922Z,100290.59
2022-08-22T17:41:22.020Z,100291.53
2022-08-22T17:43:49.810Z,100297.59
2022-08-22T17:46:17.288Z,100298.13
2022-08-22T17:48:44.683Z,100300.94
2022-08-22T17:51:11.183Z,100308.03
2022-08-22T17:53:37.660Z,100305.22
2022-08-22T17:56:05.092Z,100298.16
2022-08-22T17:58:43.167Z,100302.03
2022-08-22T18:01:11.376Z,100309.78
2022-08-22T18:03:37.934Z,100318.50
2022-08-22T18:06:04.410Z,100320.22
2022-08-22T18:08:38.451Z,100324.84
2022-08-22T18:11:05.144Z,100332.75
2022-08-22T18:13:31.767Z,100332.66
2022-08-22T18:15:58.234Z,100328.69
2022-08-22T18:18:28.250Z,100332.31
2022-08-22T18:20:57.414Z,100336.41
2022-08-22T18:23:36.169Z,100338.69
2022-08-22T18:26:08.091Z,100343.91
2022-08-22T18:28:34.549Z,100347.31
2022-08-22T18:31:01.956Z,100351.47
2022-08-22T18:33:29.399Z,100347.19
2022-08-22T18:35:59.623Z,100345.88
2022-08-22T18:38:27.520Z,100352.69
2022-08-22T18:40:55.032Z,100353.00
2022-08-22T18:43:21.506Z,100353.25
2022-08-22T18:45:48.906Z,100353.97
2022-08-22T18:48:15.419Z,100348.41
2022-08-22T18:50:41.884Z,100349.16
2022-08-22T18:53:09.300Z,100343.75
2022-08-22T18:55:35.766Z,100344.25
2022-08-22T18:58:03.212Z,100345.38
2022-08-22T19:00:30.642Z,100351.84
2022-08-22T19:02:57.224Z,100355.94
2022-08-22T19:05:23.786Z,100355.81
2022-08-22T19:07:51.169Z,100362.25
2022-08-22T19:10:18.550Z,100356.16
2022-08-22T19:12:45.016Z,100350.75
2022-08-22T19:15:11.508Z,100346.94
2022-08-22T19:17:37.988Z,100347.81
2022-08-22T19:20:04.648Z,100338.84
2022-08-22T19:22:31.123Z,100331.63
2022-08-22T19:24:57.605Z,100337.81
2022-08-22T19:27:24.132Z,100344.94
2022-08-22T19:29:51.805Z,100351.81
2022-08-22T19:32:19.203Z,100344.53
2022-08-22T19:34:47.062Z,100335.66
2022-08-22T19:37:31.043Z,100325.66
2022-08-22T19:40:00.377Z,100331.75
2022-08-22T19:42:26.959Z,100339.22
2022-08-22T19:44:53.453Z,100344.56
2022-08-22T19:47:20.861Z,100346.88
2022-08-22T19:49:48.285Z,100338.47
2022-08-22T19:52:14.802Z,100335.22
2022-08-22T19:54:41.310Z,100342.03
2022-08-22T19:57:09.932Z,100348.97
2022-08-22T19:59:36.717Z,100341.91
2022-08-22T20:02:03.469Z,100349.81
2022-08-22T20:04:29.987Z,100349.72
2022-08-22T20:06:58.919Z,100357.25
2022-08-22T20:09:25.417Z,100352.88
2022-08-22T20:11:52.047Z,100350.63
2022-08-22T20:14:20.080Z,100356.09
2022-08-22T20:16:53.984Z,100360.81
2022-08-22T20:19:22.150Z,100359.72
2022-08-22T20:21:48.704Z,100355.31
2022-08-22T20:24:16.117Z,100351.66
2022-08-22T20:27:03.342Z,100346.88
2022-08-22T20:29:29.089Z,100346.28
2022-08-22T20:31:58.742Z,100347.38
2022-08-22T20:34:25.519Z,100342.44
2022-08-22T20:37:09.645Z,100336.34
2022-08-22T20:39:38.503Z,100331.06
2022-08-22T20:42:05.028Z,100337.81
2022-08-22T20:44:31.656Z,100332.56
2022-08-22T20:49:38.765Z,100336.63
2022-08-22T20:52:06.205Z,100344.63
2022-08-22T20:54:32.692Z,100341.97
2022-08-22T20:56:59.171Z,100345.16
2022-08-22T20:59:25.721Z,100350.09
2022-08-22T21:01:53.123Z,100344.91
2022-08-22T21:04:20.531Z,100346.50
2022-08-22T21:06:47.033Z,100353.44
2022-08-22T21:09:13.504Z,100350.38
2022-08-22T21:11:40.001Z,100346.03
2022-08-22T21:14:06.485Z,100340.94
2022-08-22T21:16:34.412Z,100342.03
2022-08-22T21:19:01.796Z,100332.63
2022-08-22T21:21:28.293Z,100336.34
2022-08-22T21:23:58.590Z,100335.66
2022-08-22T21:26:27.006Z,100329.84
2022-08-22T21:28:53.507Z,100337.69
2022-08-22T21:31:20.906Z,100339.88
2022-08-22T21:33:47.413Z,100342.66
2022-08-22T21:36:14.822Z,100335.59
2022-08-22T21:38:42.273Z,100341.28
2022-08-22T21:41:08.776Z,100334.50
2022-08-22T21:43:35.266Z,100336.88
2022-08-22T21:46:02.700Z,100333.44
2022-08-22T21:48:30.164Z,100327.44
2022-08-22T21:50:56.664Z,100328.50
2022-08-22T21:53:23.167Z,100332.22
2022-08-22T21:55:49.684Z,100329.56
2022-08-22T21:58:32.603Z,100326.94
2022-08-22T22:01:02.732Z,100319.28
2022-08-22T22:03:31.150Z,100325.56
2022-08-22T22:05:57.642Z,100330.00
2022-08-22T22:08:24.161Z,100324.47
2022-08-22T22:10:55.815Z,100329.72
2022-08-22T22:13:23.826Z,100321.78
2022-08-22T22:15:50.452Z,100315.47
2022-08-22T22:18:16.933Z,100314.06
2022-08-22T22:20:43.416Z,100315.81
2022-08-22T22:23:09.921Z,100307.84
2022-08-22T22:25:40.999Z,100310.19
2022-08-22T22:28:08.458Z,100307.22
2022-08-22T22:30:35.858Z,100306.00
2022-08-22T22:33:02.343Z,100298.13
2022-08-22T22:35:28.855Z,100300.72
2022-08-22T22:37:55.367Z,100303.97
2022-08-22T22:40:21.930Z,100293.84
2022-08-22T22:42:48.449Z,100293.19
2022-08-22T22:45:14.926Z,100292.09
2022-08-22T22:47:41.405Z,100290.38
2022-08-22T22:50:07.901Z,100298.03
2022-08-22T22:52:34.373Z,100292.19
2022-08-22T22:55:07.348Z,100291.94
2022-08-22T22:57:42.734Z,100296.38
2022-08-22T23:00:09.411Z,100297.56
2022-08-22T23:02:35.896Z,100302.28
2022-08-22T23:05:02.393Z,100302.84
2022-08-22T23:07:28.875Z,100309.63
2022-08-22T23:10:01.604Z,100309.63
2022-08-22T23:12:29.682Z,100312.66
2022-08-22T23:14:56.172Z,100306.50
2022-08-22T23:17:22.637Z,100303.63
2022-08-22T23:19:49.136Z,100310.94
2022-08-22T23:22:16.537Z,100305.16
2022-08-22T23:24:43.023Z,100300.72
2022-08-22T23:27:09.496Z,100307.63
2022-08-22T23:29:35.984Z,100312.59
2022-08-22T23:32:02.493Z,100310.84
2022-08-22T23:34:28.998Z,100307.84
2022-08-22T23:36:55.488Z,100312.38
2022-08-22T23:39:22.950Z,100307.31
2022-08-22T23:41:49.428Z,100302.97
2022-08-22T23:44:15.921Z,100296.03
2022-08-22T23:46:42.440Z,100297.44
2022-08-22T23:49:08.955Z,100290.19
2022-08-22T23:51:36.368Z,100300.97
2022-08-22T23:54:02.848Z,100310.50
2022-08-22T23:56:30.287Z,100312.84
2022-08-22T23:58:57.728Z,100322.09
